Airport Name : Lisboa

Other Name : Lisbon

ICAO : LPPT

IATA : LIS

FAA :

Latitude : 38.781311

Longitude : -9.135919

Country : Portugal

Local Date and Time : 1/21/2018 6:36:00 PM

 

TAF (Terminal Aerodrome Forecast)

TAF LPPT 211700Z 2118/2224 34010KT 9999 BKN020 BECMG 2121/2124 BKN008 TEMPO 2200/2209 5000 BR BKN003 BECMG 2210/2211 BKN020 BECMG 2222/2224 SCT008

 

METAR (METeorological Aerodrome Report)

LPPT 211830Z 35007KT 310V010 9999 FEW018 BKN020 13/10 Q1032

LPPT 211800Z 34009KT 320V020 9999 FEW018 BKN020 14/11 Q1032

LPPT 211730Z 33009KT 9999 FEW018 BKN020 14/10 Q1032

LPPT 211700Z 33009KT 300V360 9999 BKN020 14/10 Q1032

LPPT 211630Z 34011KT 9999 BKN019 14/11 Q1032

LPPT 211600Z 34010KT 9999 FEW018 BKN020 14/11 Q1032

LPPT 211530Z 33009KT 9999 FEW015 BKN018 14/11 Q1032

LPPT 211500Z 32008KT 280V360 9999 FEW015 BKN018 15/11 Q1032